sensor_id;sensor_type;location;lat;lon;timestamp;pressure;altitude;pressure_sealevel;temperature;humidity
9784;BME280;4931;44.874;-1.092;2022-07-23T00:02:51;101942.91;;;17.73;100.00
9784;BME280;4931;44.874;-1.092;2022-07-23T00:07:36;101928.06;;;17.64;100.00
9784;BME280;4931;44.874;-1.092;2022-07-23T00:12:22;101935.28;;;17.65;100.00
9784;BME280;4931;44.874;-1.092;2022-07-23T00:17:10;101934.56;;;17.54;100.00
9784;BME280;4931;44.874;-1.092;2022-07-23T00:21:55;101940.63;;;17.37;100.00
9784;BME280;4931;44.874;-1.092;2022-07-23T00:26:40;101934.03;;;17.33;100.00
9784;BME280;4931;44.874;-1.092;2022-07-23T00:31:26;101930.44;;;17.33;100.00
9784;BME280;4931;44.874;-1.092;2022-07-23T00:36:14;101916.25;;;17.34;100.00
9784;BME280;4931;44.874;-1.092;2022-07-23T00:40:59;101910.78;;;17.29;100.00
9784;BME280;4931;44.874;-1.092;2022-07-23T00:45:45;101920.22;;;17.28;100.00
9784;BME280;4931;44.874;-1.092;2022-07-23T00:50:30;101905.72;;;16.64;100.00
9784;BME280;4931;44.874;-1.092;2022-07-23T00:55:18;101907.94;;;16.91;100.00
9784;BME280;4931;44.874;-1.092;2022-07-23T01:00:05;101909.19;;;17.04;100.00
9784;BME280;4931;44.874;-1.092;2022-07-23T01:04:51;101908.88;;;17.05;100.00
9784;BME280;4931;44.874;-1.092;2022-07-23T01:09:36;101909.28;;;16.93;100.00
9784;BME280;4931;44.874;-1.092;2022-07-23T01:14:24;101908.19;;;16.89;100.00
9784;BME280;4931;44.874;-1.092;2022-07-23T01:19:10;101894.22;;;16.75;100.00
9784;BME280;4931;44.874;-1.092;2022-07-23T01:23:58;101906.75;;;16.68;100.00
9784;BME280;4931;44.874;-1.092;2022-07-23T01:28:43;101896.47;;;16.73;100.00
9784;BME280;4931;44.874;-1.092;2022-07-23T01:33:28;101904.28;;;16.66;100.00
9784;BME280;4931;44.874;-1.092;2022-07-23T01:38:14;101909.34;;;16.00;100.00
9784;BME280;4931;44.874;-1.092;2022-07-23T01:43:01;101903.94;;;16.19;100.00
9784;BME280;4931;44.874;-1.092;2022-07-23T01:47:48;101890.28;;;16.28;100.00
9784;BME280;4931;44.874;-1.092;2022-07-23T01:52:33;101888.06;;;16.30;100.00
9784;BME280;4931;44.874;-1.092;2022-07-23T01:57:19;101880.31;;;16.27;100.00
9784;BME280;4931;44.874;-1.092;2022-07-23T02:02:06;101884.22;;;16.26;100.00
9784;BME280;4931;44.874;-1.092;2022-07-23T02:06:53;101889.75;;;16.26;100.00
9784;BME280;4931;44.874;-1.092;2022-07-23T02:11:38;101882.56;;;16.25;100.00
9784;BME280;4931;44.874;-1.092;2022-07-23T02:16:23;101884.22;;;16.26;100.00
9784;BME280;4931;44.874;-1.092;2022-07-23T02:21:11;101875.47;;;16.14;100.00
9784;BME280;4931;44.874;-1.092;2022-07-23T02:25:57;101877.91;;;15.86;100.00
9784;BME280;4931;44.874;-1.092;2022-07-23T02:30:42;101880.22;;;15.68;100.00
9784;BME280;4931;44.874;-1.092;2022-07-23T02:35:27;101887.31;;;15.80;100.00
9784;BME280;4931;44.874;-1.092;2022-07-23T02:40:15;101883.47;;;15.81;100.00
9784;BME280;4931;44.874;-1.092;2022-07-23T02:45:00;101881.78;;;15.80;100.00
9784;BME280;4931;44.874;-1.092;2022-07-23T02:49:45;101881.78;;;15.80;100.00
9784;BME280;4931;44.874;-1.092;2022-07-23T02:54:31;101878.50;;;15.77;100.00
9784;BME280;4931;44.874;-1.092;2022-07-23T02:59:19;101881.31;;;15.72;100.00
9784;BME280;4931;44.874;-1.092;2022-07-23T03:04:05;101883.47;;;15.75;100.00
9784;BME280;4931;44.874;-1.092;2022-07-23T03:08:50;101880.47;;;15.72;100.00
9784;BME280;4931;44.874;-1.092;2022-07-23T03:13:35;101869.16;;;15.68;100.00
9784;BME280;4931;44.874;-1.092;2022-07-23T03:18:23;101869.84;;;15.50;100.00
9784;BME280;4931;44.874;-1.092;2022-07-23T03:23:08;101873.03;;;15.22;100.00
9784;BME280;4931;44.874;-1.092;2022-07-23T03:27:54;101870.91;;;15.04;100.00
9784;BME280;4931;44.874;-1.092;2022-07-23T03:32:39;101874.38;;;15.30;100.00
9784;BME280;4931;44.874;-1.092;2022-07-23T03:37:27;101869.69;;;15.25;100.00
9784;BME280;4931;44.874;-1.092;2022-07-23T03:42:14;101876.13;;;15.10;100.00
9784;BME280;4931;44.874;-1.092;2022-07-23T03:47:00;101865.59;;;15.18;100.00
9784;BME280;4931;44.874;-1.092;2022-07-23T03:51:46;101863.69;;;15.13;100.00
9784;BME280;4931;44.874;-1.092;2022-07-23T03:56:34;101868.41;;;15.02;100.00
9784;BME280;4931;44.874;-1.092;2022-07-23T04:01:20;101876.69;;;15.02;100.00
9784;BME280;4931;44.874;-1.092;2022-07-23T04:06:05;101868.19;;;14.99;100.00
9784;BME280;4931;44.874;-1.092;2022-07-23T04:10:51;101887.81;;;14.97;100.00
9784;BME280;4931;44.874;-1.092;2022-07-23T04:15:39;101879.25;;;14.93;100.00
9784;BME280;4931;44.874;-1.092;2022-07-23T04:20:25;101879.06;;;14.54;100.00
9784;BME280;4931;44.874;-1.092;2022-07-23T04:25:10;101881.78;;;14.69;100.00
9784;BME280;4931;44.874;-1.092;2022-07-23T04:29:56;101885.63;;;14.78;100.00
9784;BME280;4931;44.874;-1.092;2022-07-23T04:34:44;101892.31;;;14.72;100.00
9784;BME280;4931;44.874;-1.092;2022-07-23T04:39:29;101900.03;;;14.70;100.00
9784;BME280;4931;44.874;-1.092;2022-07-23T04:44:14;101895.63;;;14.43;100.00
9784;BME280;4931;44.874;-1.092;2022-07-23T04:48:59;101900.59;;;14.36;100.00
9784;BME280;4931;44.874;-1.092;2022-07-23T04:53:48;101900.88;;;14.30;100.00
9784;BME280;4931;44.874;-1.092;2022-07-23T04:58:34;101902.81;;;14.44;100.00
9784;BME280;4931;44.874;-1.092;2022-07-23T05:03:19;101899.78;;;14.36;100.00
9784;BME280;4931;44.874;-1.092;2022-07-23T05:08:05;101898.69;;;14.32;100.00
9784;BME280;4931;44.874;-1.092;2022-07-23T05:12:53;101900.59;;;14.47;100.00
9784;BME280;4931;44.874;-1.092;2022-07-23T05:17:38;101898.63;;;14.63;100.00
9784;BME280;4931;44.874;-1.092;2022-07-23T05:22:23;101902.78;;;14.75;100.00
9784;BME280;4931;44.874;-1.092;2022-07-23T05:27:09;101907.16;;;14.92;100.00
9784;BME280;4931;44.874;-1.092;2022-07-23T05:31:57;101911.53;;;14.98;100.00
9784;BME280;4931;44.874;-1.092;2022-07-23T05:36:42;101897.16;;;15.06;100.00
9784;BME280;4931;44.874;-1.092;2022-07-23T05:41:27;101906.13;;;14.67;100.00
9784;BME280;4931;44.874;-1.092;2022-07-23T05:46:13;101906.13;;;14.41;100.00
9784;BME280;4931;44.874;-1.092;2022-07-23T05:51:01;101909.41;;;14.69;100.00
9784;BME280;4931;44.874;-1.092;2022-07-23T05:55:48;101922.03;;;15.01;100.00
9784;BME280;4931;44.874;-1.092;2022-07-23T06:00:33;101909.75;;;15.28;100.00
9784;BME280;4931;44.874;-1.092;2022-07-23T06:05:19;101915.13;;;15.59;100.00
9784;BME280;4931;44.874;-1.092;2022-07-23T06:10:08;101910.59;;;15.84;100.00
9784;BME280;4931;44.874;-1.092;2022-07-23T06:14:53;101910.97;;;16.06;100.00
9784;BME280;4931;44.874;-1.092;2022-07-23T06:19:39;101919.31;;;16.31;100.00
9784;BME280;4931;44.874;-1.092;2022-07-23T06:24:24;101917.00;;;16.43;100.00
9784;BME280;4931;44.874;-1.092;2022-07-23T06:29:12;101924.28;;;16.63;100.00
9784;BME280;4931;44.874;-1.092;2022-07-23T06:33:57;101923.06;;;16.74;100.00
9784;BME280;4931;44.874;-1.092;2022-07-23T06:38:42;101937.31;;;16.87;100.00
9784;BME280;4931;44.874;-1.092;2022-07-23T06:43:30;101931.72;;;16.97;100.00
9784;BME280;4931;44.874;-1.092;2022-07-23T06:48:18;101946.19;;;17.13;100.00
9784;BME280;4931;44.874;-1.092;2022-07-23T06:53:04;101935.06;;;17.37;100.00
9784;BME280;4931;44.874;-1.092;2022-07-23T06:57:49;101935.81;;;17.24;100.00
9784;BME280;4931;44.874;-1.092;2022-07-23T07:02:35;101934.44;;;17.46;100.00
9784;BME280;4931;44.874;-1.092;2022-07-23T07:07:22;101948.00;;;17.23;100.00
9784;BME280;4931;44.874;-1.092;2022-07-23T07:12:08;101951.19;;;17.35;100.00
9784;BME280;4931;44.874;-1.092;2022-07-23T07:16:54;101969.22;;;17.57;100.00
9784;BME280;4931;44.874;-1.092;2022-07-23T07:21:39;101957.91;;;17.72;100.00
9784;BME280;4931;44.874;-1.092;2022-07-23T07:26:27;101964.34;;;17.87;100.00
9784;BME280;4931;44.874;-1.092;2022-07-23T07:31:13;101967.81;;;18.17;100.00
9784;BME280;4931;44.874;-1.092;2022-07-23T07:35:58;101974.34;;;18.59;100.00
9784;BME280;4931;44.874;-1.092;2022-07-23T07:40:44;101970.13;;;19.08;100.00
9784;BME280;4931;44.874;-1.092;2022-07-23T07:45:32;101976.25;;;19.47;100.00
9784;BME280;4931;44.874;-1.092;2022-07-23T07:50:18;101974.97;;;19.95;100.00
9784;BME280;4931;44.874;-1.092;2022-07-23T07:55:04;101966.97;;;20.02;100.00
9784;BME280;4931;44.874;-1.092;2022-07-23T08:04:40;101970.84;;;20.92;100.00
9784;BME280;4931;44.874;-1.092;2022-07-23T08:09:26;101974.75;;;21.31;100.00
9784;BME280;4931;44.874;-1.092;2022-07-23T08:14:12;101965.44;;;21.53;100.00
9784;BME280;4931;44.874;-1.092;2022-07-23T08:18:57;101973.56;;;22.25;100.00
9784;BME280;4931;44.874;-1.092;2022-07-23T08:23:45;101961.41;;;22.21;100.00
9784;BME280;4931;44.874;-1.092;2022-07-23T08:28:30;101965.00;;;22.48;100.00
9784;BME280;4931;44.874;-1.092;2022-07-23T08:33:17;101973.81;;;22.67;100.00
9784;BME280;4931;44.874;-1.092;2022-07-23T08:38:17;101963.16;;;22.99;100.00
9784;BME280;4931;44.874;-1.092;2022-07-23T08:43:07;101972.13;;;22.84;100.00
9784;BME280;4931;44.874;-1.092;2022-07-23T08:47:54;101972.28;;;23.26;100.00
9784;BME280;4931;44.874;-1.092;2022-07-23T08:52:44;101963.13;;;23.08;100.00
9784;BME280;4931;44.874;-1.092;2022-07-23T08:57:29;101968.03;;;23.20;100.00
9784;BME280;4931;44.874;-1.092;2022-07-23T09:02:17;101968.00;;;23.80;100.00
9784;BME280;4931;44.874;-1.092;2022-07-23T09:07:03;101958.41;;;23.81;100.00
9784;BME280;4931;44.874;-1.092;2022-07-23T09:11:48;101963.34;;;23.84;100.00
9784;BME280;4931;44.874;-1.092;2022-07-23T09:16:46;101965.38;;;23.75;100.00
9784;BME280;4931;44.874;-1.092;2022-07-23T09:21:35;101971.03;;;23.87;100.00
9784;BME280;4931;44.874;-1.092;2022-07-23T09:26:32;101962.94;;;24.15;100.00
9784;BME280;4931;44.874;-1.092;2022-07-23T09:31:18;101966.50;;;23.82;100.00
9784;BME280;4931;44.874;-1.092;2022-07-23T09:36:04;101970.84;;;23.50;100.00
9784;BME280;4931;44.874;-1.092;2022-07-23T09:41:10;101969.06;;;23.66;100.00
9784;BME280;4931;44.874;-1.092;2022-07-23T09:46:17;101972.84;;;23.70;100.00
9784;BME280;4931;44.874;-1.092;2022-07-23T09:51:03;101968.25;;;23.87;100.00
9784;BME280;4931;44.874;-1.092;2022-07-23T09:55:48;101965.13;;;24.56;100.00
9784;BME280;4931;44.874;-1.092;2022-07-23T10:00:37;101956.13;;;24.96;100.00
9784;BME280;4931;44.874;-1.092;2022-07-23T10:05:24;101956.69;;;24.89;100.00
9784;BME280;4931;44.874;-1.092;2022-07-23T10:10:11;101954.06;;;24.59;100.00
9784;BME280;4931;44.874;-1.092;2022-07-23T10:14:58;101940.44;;;24.82;100.00
9784;BME280;4931;44.874;-1.092;2022-07-23T10:19:46;101939.25;;;25.58;100.00
9784;BME280;4931;44.874;-1.092;2022-07-23T10:24:52;101926.59;;;25.92;100.00
9784;BME280;4931;44.874;-1.092;2022-07-23T10:29:44;101936.81;;;26.41;100.00
9784;BME280;4931;44.874;-1.092;2022-07-23T10:34:39;101921.81;;;27.17;100.00
9784;BME280;4931;44.874;-1.092;2022-07-23T10:39:31;101914.81;;;27.43;100.00
9784;BME280;4931;44.874;-1.092;2022-07-23T10:44:18;101906.53;;;27.50;100.00
9784;BME280;4931;44.874;-1.092;2022-07-23T10:49:22;101903.41;;;27.04;100.00
9784;BME280;4931;44.874;-1.092;2022-07-23T10:54:21;101901.00;;;27.38;100.00
9784;BME280;4931;44.874;-1.092;2022-07-23T10:59:08;101900.50;;;27.52;100.00
9784;BME280;4931;44.874;-1.092;2022-07-23T11:03:56;101895.06;;;27.07;100.00
9784;BME280;4931;44.874;-1.092;2022-07-23T11:08:42;101887.69;;;27.03;100.00
9784;BME280;4931;44.874;-1.092;2022-07-23T11:13:41;101889.47;;;26.91;100.00
9784;BME280;4931;44.874;-1.092;2022-07-23T11:24:04;101879.00;;;27.27;100.00
9784;BME280;4931;44.874;-1.092;2022-07-23T11:28:51;101864.66;;;28.11;100.00
9784;BME280;4931;44.874;-1.092;2022-07-23T11:33:36;101859.69;;;29.01;95.18
9784;BME280;4931;44.874;-1.092;2022-07-23T11:38:22;101866.28;;;28.58;91.73
9784;BME280;4931;44.874;-1.092;2022-07-23T11:43:11;101859.13;;;29.79;89.06
9784;BME280;4931;44.874;-1.092;2022-07-23T11:47:56;101842.56;;;29.17;85.73
9784;BME280;4931;44.874;-1.092;2022-07-23T11:52:41;101853.50;;;28.91;85.71
9784;BME280;4931;44.874;-1.092;2022-07-23T11:57:28;101848.78;;;28.99;85.77
9784;BME280;4931;44.874;-1.092;2022-07-23T12:02:16;101831.16;;;29.70;92.59
9784;BME280;4931;44.874;-1.092;2022-07-23T12:07:02;101848.72;;;30.28;92.45
9784;BME280;4931;44.874;-1.092;2022-07-23T12:11:57;101840.53;;;30.60;91.34
9784;BME280;4931;44.874;-1.092;2022-07-23T12:16:42;101834.81;;;30.53;92.18
9784;BME280;4931;44.874;-1.092;2022-07-23T12:21:30;101847.75;;;31.13;85.27
9784;BME280;4931;44.874;-1.092;2022-07-23T12:26:16;101854.31;;;30.66;86.10
9784;BME280;4931;44.874;-1.092;2022-07-23T12:31:04;101846.72;;;30.28;88.55
9784;BME280;4931;44.874;-1.092;2022-07-23T12:35:51;101849.16;;;30.34;87.25
9784;BME280;4931;44.874;-1.092;2022-07-23T12:40:42;101844.94;;;30.54;85.97
9784;BME280;4931;44.874;-1.092;2022-07-23T12:45:42;101844.16;;;30.16;84.35
9784;BME280;4931;44.874;-1.092;2022-07-23T12:50:35;101844.72;;;29.91;87.93
9784;BME280;4931;44.874;-1.092;2022-07-23T12:55:27;101845.41;;;29.47;89.54
9784;BME280;4931;44.874;-1.092;2022-07-23T13:00:18;101841.72;;;29.77;89.18
9784;BME280;4931;44.874;-1.092;2022-07-23T13:05:04;101850.72;;;29.52;92.02
9784;BME280;4931;44.874;-1.092;2022-07-23T13:09:53;101840.63;;;29.85;88.44
9784;BME280;4931;44.874;-1.092;2022-07-23T13:14:39;101838.94;;;29.16;87.62
9784;BME280;4931;44.874;-1.092;2022-07-23T13:19:27;101831.00;;;29.25;91.36
9784;BME280;4931;44.874;-1.092;2022-07-23T13:24:12;101832.84;;;29.41;91.00
9784;BME280;4931;44.874;-1.092;2022-07-23T13:28:58;101827.25;;;28.87;94.15
9784;BME280;4931;44.874;-1.092;2022-07-23T13:33:44;101824.88;;;28.89;93.59
9784;BME280;4931;44.874;-1.092;2022-07-23T13:38:33;101826.91;;;28.65;93.72
9784;BME280;4931;44.874;-1.092;2022-07-23T13:43:21;101822.78;;;28.13;97.94
9784;BME280;4931;44.874;-1.092;2022-07-23T13:48:08;101825.75;;;28.20;98.70
9784;BME280;4931;44.874;-1.092;2022-07-23T13:52:54;101830.25;;;27.82;100.00
9784;BME280;4931;44.874;-1.092;2022-07-23T13:57:42;101826.69;;;28.05;98.05
9784;BME280;4931;44.874;-1.092;2022-07-23T14:02:27;101824.97;;;28.00;96.80
9784;BME280;4931;44.874;-1.092;2022-07-23T14:07:13;101819.31;;;28.00;97.23
9784;BME280;4931;44.874;-1.092;2022-07-23T14:11:58;101820.06;;;27.74;99.40
9784;BME280;4931;44.874;-1.092;2022-07-23T14:16:46;101811.38;;;27.63;98.30
9784;BME280;4931;44.874;-1.092;2022-07-23T14:21:32;101807.97;;;27.96;97.15
9784;BME280;4931;44.874;-1.092;2022-07-23T14:26:18;101795.69;;;27.85;96.42
9784;BME280;4931;44.874;-1.092;2022-07-23T14:31:04;101807.00;;;27.65;96.60
9784;BME280;4931;44.874;-1.092;2022-07-23T14:36:05;101796.25;;;27.32;97.19
9784;BME280;4931;44.874;-1.092;2022-07-23T14:40:56;101797.50;;;27.15;96.70
9784;BME280;4931;44.874;-1.092;2022-07-23T14:45:42;101800.91;;;27.24;96.08
9784;BME280;4931;44.874;-1.092;2022-07-23T14:50:30;101795.09;;;27.17;100.00
9784;BME280;4931;44.874;-1.092;2022-07-23T14:55:18;101786.94;;;27.12;100.00
9784;BME280;4931;44.874;-1.092;2022-07-23T15:00:04;101786.22;;;27.15;100.00
9784;BME280;4931;44.874;-1.092;2022-07-23T15:04:50;101785.09;;;27.00;100.00
9784;BME280;4931;44.874;-1.092;2022-07-23T15:09:37;101773.78;;;26.96;100.00
9784;BME280;4931;44.874;-1.092;2022-07-23T15:14:25;101774.66;;;26.65;100.00
9784;BME280;4931;44.874;-1.092;2022-07-23T15:19:16;101761.91;;;26.87;100.00
9784;BME280;4931;44.874;-1.092;2022-07-23T15:24:01;101779.16;;;26.70;100.00
9784;BME280;4931;44.874;-1.092;2022-07-23T15:28:46;101756.22;;;26.67;100.00
9784;BME280;4931;44.874;-1.092;2022-07-23T15:33:34;101761.53;;;26.37;100.00
9784;BME280;4931;44.874;-1.092;2022-07-23T15:38:21;101756.41;;;26.75;100.00
9784;BME280;4931;44.874;-1.092;2022-07-23T15:43:07;101759.31;;;26.62;100.00
9784;BME280;4931;44.874;-1.092;2022-07-23T15:47:52;101755.31;;;26.63;100.00
9784;BME280;4931;44.874;-1.092;2022-07-23T15:52:42;101757.81;;;26.68;100.00
9784;BME280;4931;44.874;-1.092;2022-07-23T15:57:27;101747.72;;;26.48;100.00
9784;BME280;4931;44.874;-1.092;2022-07-23T16:02:13;101756.19;;;26.32;100.00
9784;BME280;4931;44.874;-1.092;2022-07-23T16:06:59;101752.47;;;26.12;100.00
9784;BME280;4931;44.874;-1.092;2022-07-23T16:11:48;101754.09;;;26.13;100.00
9784;BME280;4931;44.874;-1.092;2022-07-23T16:16:35;101741.97;;;26.09;100.00
9784;BME280;4931;44.874;-1.092;2022-07-23T16:21:21;101734.69;;;26.08;100.00
9784;BME280;4931;44.874;-1.092;2022-07-23T16:26:06;101743.28;;;25.99;100.00
9784;BME280;4931;44.874;-1.092;2022-07-23T16:30:54;101747.72;;;25.84;100.00
9784;BME280;4931;44.874;-1.092;2022-07-23T16:35:40;101741.19;;;25.80;100.00
9784;BME280;4931;44.874;-1.092;2022-07-23T16:40:28;101734.47;;;25.68;100.00
9784;BME280;4931;44.874;-1.092;2022-07-23T16:45:13;101731.22;;;25.66;100.00
9784;BME280;4931;44.874;-1.092;2022-07-23T16:50:02;101723.06;;;25.61;100.00
9784;BME280;4931;44.874;-1.092;2022-07-23T16:54:49;101723.06;;;25.61;100.00
9784;BME280;4931;44.874;-1.092;2022-07-23T16:59:34;101716.28;;;25.62;100.00
9784;BME280;4931;44.874;-1.092;2022-07-23T17:04:19;101721.25;;;25.53;100.00
9784;BME280;4931;44.874;-1.092;2022-07-23T17:09:08;101726.09;;;25.40;100.00
9784;BME280;4931;44.874;-1.092;2022-07-23T17:13:54;101708.25;;;25.20;100.00
9784;BME280;4931;44.874;-1.092;2022-07-23T17:18:39;101708.25;;;25.48;100.00
9784;BME280;4931;44.874;-1.092;2022-07-23T17:23:24;101704.00;;;25.39;100.00
9784;BME280;4931;44.874;-1.092;2022-07-23T17:28:12;101701.94;;;25.23;100.00
9784;BME280;4931;44.874;-1.092;2022-07-23T17:32:58;101698.03;;;25.28;100.00
9784;BME280;4931;44.874;-1.092;2022-07-23T17:37:48;101693.78;;;25.18;100.00
9784;BME280;4931;44.874;-1.092;2022-07-23T17:42:33;101700.56;;;25.17;100.00
9784;BME280;4931;44.874;-1.092;2022-07-23T17:47:22;101702.44;;;25.13;100.00
9784;BME280;4931;44.874;-1.092;2022-07-23T17:52:08;101690.91;;;25.02;100.00
9784;BME280;4931;44.874;-1.092;2022-07-23T17:56:53;101693.47;;;25.07;100.00
9784;BME280;4931;44.874;-1.092;2022-07-23T18:01:45;101698.66;;;25.21;100.00
9784;BME280;4931;44.874;-1.092;2022-07-23T18:06:33;101708.38;;;24.95;100.00
9784;BME280;4931;44.874;-1.092;2022-07-23T18:11:19;101705.59;;;24.83;100.00
9784;BME280;4931;44.874;-1.092;2022-07-23T18:16:06;101710.56;;;24.36;100.00
9784;BME280;4931;44.874;-1.092;2022-07-23T18:20:52;101705.75;;;24.37;100.00
9784;BME280;4931;44.874;-1.092;2022-07-23T18:25:41;101701.66;;;24.34;100.00
9784;BME280;4931;44.874;-1.092;2022-07-23T18:30:28;101705.41;;;24.51;100.00
9784;BME280;4931;44.874;-1.092;2022-07-23T18:35:13;101706.09;;;24.48;100.00
9784;BME280;4931;44.874;-1.092;2022-07-23T18:39:59;101702.63;;;24.14;100.00
9784;BME280;4931;44.874;-1.092;2022-07-23T18:44:50;101709.72;;;23.99;100.00
9784;BME280;4931;44.874;-1.092;2022-07-23T18:49:36;101709.16;;;23.93;100.00
9784;BME280;4931;44.874;-1.092;2022-07-23T18:54:22;101717.06;;;23.91;100.00
9784;BME280;4931;44.874;-1.092;2022-07-23T18:59:08;101712.38;;;23.70;100.00
9784;BME280;4931;44.874;-1.092;2022-07-23T19:04:07;101710.09;;;23.51;100.00
9784;BME280;4931;44.874;-1.092;2022-07-23T19:08:52;101713.97;;;23.71;100.00
9784;BME280;4931;44.874;-1.092;2022-07-23T19:13:38;101710.22;;;23.55;100.00
9784;BME280;4931;44.874;-1.092;2022-07-23T19:18:23;101706.81;;;23.49;100.00
9784;BME280;4931;44.874;-1.092;2022-07-23T19:23:12;101713.16;;;23.25;100.00
9784;BME280;4931;44.874;-1.092;2022-07-23T19:27:57;101715.41;;;23.11;100.00
9784;BME280;4931;44.874;-1.092;2022-07-23T19:32:42;101717.53;;;23.14;100.00
9784;BME280;4931;44.874;-1.092;2022-07-23T19:37:28;101712.88;;;22.97;100.00
9784;BME280;4931;44.874;-1.092;2022-07-23T19:42:16;101714.47;;;22.85;100.00
9784;BME280;4931;44.874;-1.092;2022-07-23T19:47:05;101714.13;;;22.87;100.00
9784;BME280;4931;44.874;-1.092;2022-07-23T19:51:50;101722.44;;;22.75;100.00
9784;BME280;4931;44.874;-1.092;2022-07-23T19:56:35;101728.16;;;22.78;100.00
9784;BME280;4931;44.874;-1.092;2022-07-23T20:01:24;101726.09;;;22.66;100.00
9784;BME280;4931;44.874;-1.092;2022-07-23T20:06:09;101743.47;;;22.51;100.00
9784;BME280;4931;44.874;-1.092;2022-07-23T20:10:54;101732.50;;;22.46;100.00
9784;BME280;4931;44.874;-1.092;2022-07-23T20:15:40;101743.72;;;22.28;100.00
9784;BME280;4931;44.874;-1.092;2022-07-23T20:20:28;101742.75;;;22.24;100.00
9784;BME280;4931;44.874;-1.092;2022-07-23T20:25:13;101748.53;;;22.19;100.00
9784;BME280;4931;44.874;-1.092;2022-07-23T20:29:58;101758.16;;;22.00;100.00
9784;BME280;4931;44.874;-1.092;2022-07-23T20:34:44;101760.94;;;22.00;100.00
9784;BME280;4931;44.874;-1.092;2022-07-23T20:39:31;101765.22;;;21.89;100.00
9784;BME280;4931;44.874;-1.092;2022-07-23T20:44:17;101761.53;;;21.76;100.00
9784;BME280;4931;44.874;-1.092;2022-07-23T20:49:03;101766.09;;;21.72;100.00
9784;BME280;4931;44.874;-1.092;2022-07-23T20:53:49;101767.13;;;21.67;100.00
9784;BME280;4931;44.874;-1.092;2022-07-23T20:58:37;101768.09;;;21.63;100.00
9784;BME280;4931;44.874;-1.092;2022-07-23T21:03:22;101770.06;;;21.71;100.00
9784;BME280;4931;44.874;-1.092;2022-07-23T21:08:07;101776.16;;;21.64;100.00
9784;BME280;4931;44.874;-1.092;2022-07-23T21:12:53;101769.25;;;21.53;100.00
9784;BME280;4931;44.874;-1.092;2022-07-23T21:17:41;101780.06;;;21.46;100.00
9784;BME280;4931;44.874;-1.092;2022-07-23T21:22:27;101773.50;;;21.42;100.00
9784;BME280;4931;44.874;-1.092;2022-07-23T21:27:12;101773.84;;;21.31;100.00
9784;BME280;4931;44.874;-1.092;2022-07-23T21:31:58;101775.00;;;21.30;100.00
9784;BME280;4931;44.874;-1.092;2022-07-23T21:36:46;101776.47;;;21.19;100.00
9784;BME280;4931;44.874;-1.092;2022-07-23T21:41:31;101777.63;;;21.09;100.00
9784;BME280;4931;44.874;-1.092;2022-07-23T21:46:17;101769.91;;;20.97;100.00
9784;BME280;4931;44.874;-1.092;2022-07-23T21:51:02;101773.50;;;20.98;100.00
9784;BME280;4931;44.874;-1.092;2022-07-23T21:55:51;101774.16;;;20.86;100.00
9784;BME280;4931;44.874;-1.092;2022-07-23T22:00:36;101780.22;;;20.88;100.00
9784;BME280;4931;44.874;-1.092;2022-07-23T22:05:24;101776.28;;;20.89;100.00
9784;BME280;4931;44.874;-1.092;2022-07-23T22:10:21;101771.03;;;20.87;100.00
9784;BME280;4931;44.874;-1.092;2022-07-23T22:15:15;101767.91;;;20.71;100.00
9784;BME280;4931;44.874;-1.092;2022-07-23T22:20:06;101772.75;;;20.57;100.00
9784;BME280;4931;44.874;-1.092;2022-07-23T22:24:56;101773.41;;;20.54;100.00
9784;BME280;4931;44.874;-1.092;2022-07-23T22:29:42;101761.56;;;20.48;100.00
9784;BME280;4931;44.874;-1.092;2022-07-23T22:34:30;101771.34;;;20.28;100.00
9784;BME280;4931;44.874;-1.092;2022-07-23T22:39:15;101770.06;;;20.34;100.00
9784;BME280;4931;44.874;-1.092;2022-07-23T22:44:01;101763.66;;;20.34;100.00
9784;BME280;4931;44.874;-1.092;2022-07-23T22:48:47;101766.59;;;20.29;100.00
9784;BME280;4931;44.874;-1.092;2022-07-23T22:53:35;101764.25;;;20.22;100.00
9784;BME280;4931;44.874;-1.092;2022-07-23T22:58:20;101769.13;;;20.07;100.00
9784;BME280;4931;44.874;-1.092;2022-07-23T23:03:11;101764.53;;;20.12;100.00
9784;BME280;4931;44.874;-1.092;2022-07-23T23:07:57;101758.50;;;20.10;100.00
9784;BME280;4931;44.874;-1.092;2022-07-23T23:12:45;101758.78;;;19.99;100.00
9784;BME280;4931;44.874;-1.092;2022-07-23T23:17:30;101754.81;;;19.69;100.00
9784;BME280;4931;44.874;-1.092;2022-07-23T23:22:16;101764.84;;;19.79;100.00
9784;BME280;4931;44.874;-1.092;2022-07-23T23:27:01;101754.81;;;19.69;100.00
9784;BME280;4931;44.874;-1.092;2022-07-23T23:31:49;101755.88;;;19.59;100.00
9784;BME280;4931;44.874;-1.092;2022-07-23T23:36:34;101760.25;;;19.51;100.00
9784;BME280;4931;44.874;-1.092;2022-07-23T23:41:20;101750.31;;;19.59;100.00
9784;BME280;4931;44.874;-1.092;2022-07-23T23:46:08;101747.66;;;19.54;100.00
9784;BME280;4931;44.874;-1.092;2022-07-23T23:50:56;101747.03;;;19.57;100.00
9784;BME280;4931;44.874;-1.092;2022-07-23T23:55:41;101739.28;;;19.45;100.00
